createdAt,value
2018-09-23T00:00:19.644Z,23.60
2018-09-23T00:10:23.874Z,23.53
2018-09-23T00:20:26.900Z,23.58
2018-09-23T00:40:32.662Z,23.55
2018-09-23T00:50:35.946Z,23.56
2018-09-23T01:00:39.154Z,23.58
2018-09-23T01:10:42.697Z,23.53
2018-09-23T01:20:49.171Z,23.54
2018-09-23T01:30:52.136Z,23.50
2018-09-23T01:40:56.616Z,23.50
2018-09-23T01:51:00.745Z,23.52
2018-09-23T02:01:04.025Z,23.54
2018-09-23T02:11:07.549Z,23.54
2018-09-23T02:21:10.947Z,23.53
2018-09-23T02:31:14.196Z,23.57
2018-09-23T02:41:17.451Z,23.52
2018-09-23T02:51:22.893Z,23.54
2018-09-23T03:01:27.133Z,23.47
2018-09-23T03:11:31.549Z,23.49
2018-09-23T03:21:35.913Z,23.46
2018-09-23T03:31:39.573Z,23.47
2018-09-23T03:41:42.872Z,23.44
2018-09-23T03:51:46.829Z,23.45
2018-09-23T04:01:49.989Z,23.45
2018-09-23T04:11:53.091Z,23.44
2018-09-23T04:21:56.333Z,23.39
2018-09-23T04:32:00.478Z,23.38
2018-09-23T04:42:03.515Z,23.45
2018-09-23T04:52:07.489Z,23.37
2018-09-23T05:02:11.673Z,23.33
2018-09-23T05:12:14.809Z,23.35
2018-09-23T05:22:18.509Z,23.34
2018-09-23T05:32:21.708Z,23.38
2018-09-23T05:42:24.788Z,23.33
2018-09-23T05:52:28.027Z,23.32
2018-09-23T06:02:31.090Z,23.32
2018-09-23T06:12:34.233Z,23.33
2018-09-23T06:22:37.429Z,23.36
2018-09-23T06:32:40.517Z,23.25
2018-09-23T06:42:43.648Z,23.25
2018-09-23T06:52:46.817Z,23.22
2018-09-23T07:02:50.010Z,23.34
2018-09-23T07:12:53.075Z,23.39
2018-09-23T07:22:56.213Z,23.40
2018-09-23T07:32:59.358Z,23.41
2018-09-23T07:43:02.460Z,23.71
2018-09-23T07:53:05.936Z,23.68
2018-09-23T08:03:09.085Z,23.75
2018-09-23T08:13:12.316Z,23.80
2018-09-23T08:23:15.396Z,23.83
2018-09-23T08:33:18.422Z,23.82
2018-09-23T08:43:21.629Z,23.96
2018-09-23T08:53:24.746Z,24.14
2018-09-23T09:03:27.830Z,24.05
2018-09-23T09:13:30.984Z,24.10
2018-09-23T09:23:34.092Z,24.00
2018-09-23T09:33:37.434Z,24.08
2018-09-23T09:43:40.599Z,24.01
2018-09-23T09:53:43.753Z,23.91
2018-09-23T10:03:47.121Z,23.19
2018-09-23T10:13:51.327Z,22.73
2018-09-23T10:23:54.632Z,21.86
2018-09-23T10:33:57.670Z,21.98
2018-09-23T10:44:00.788Z,21.67
2018-09-23T10:54:03.990Z,21.95
2018-09-23T11:04:07.097Z,21.66
2018-09-23T11:14:11.523Z,21.63
2018-09-23T11:24:14.717Z,21.73
2018-09-23T11:34:18.026Z,21.58
2018-09-23T11:44:21.143Z,21.54
2018-09-23T11:54:24.346Z,21.73
2018-09-23T12:04:27.444Z,21.37
2018-09-23T12:14:30.524Z,21.99
2018-09-23T12:24:34.233Z,22.76
2018-09-23T12:34:37.421Z,22.95
2018-09-23T12:44:40.561Z,22.96
2018-09-23T12:54:43.726Z,23.19
2018-09-23T13:04:46.886Z,23.23
2018-09-23T13:14:50.129Z,23.30
2018-09-23T13:24:53.411Z,23.36
2018-09-23T13:34:56.582Z,23.46
2018-09-23T13:44:59.809Z,23.51
2018-09-23T13:55:02.935Z,23.59
2018-09-23T14:05:06.182Z,23.61
2018-09-23T14:15:09.257Z,23.63
2018-09-23T14:25:12.377Z,23.74
2018-09-23T14:35:15.525Z,23.72
2018-09-23T14:45:18.674Z,23.75
2018-09-23T14:55:21.773Z,23.72
2018-09-23T15:05:25.013Z,23.67
2018-09-23T15:15:28.153Z,23.70
2018-09-23T15:25:31.187Z,23.77
2018-09-23T15:35:34.401Z,23.81
2018-09-23T15:45:37.595Z,23.78
2018-09-23T15:55:40.655Z,23.80
2018-09-23T16:05:43.945Z,23.87
2018-09-23T16:15:47.504Z,23.96
2018-09-23T16:25:50.742Z,24.08
2018-09-23T16:35:53.808Z,24.00
2018-09-23T16:45:57.102Z,23.74
2018-09-23T16:56:00.424Z,23.78
2018-09-23T17:06:03.478Z,21.01
2018-09-23T17:16:06.641Z,20.54
2018-09-23T17:26:09.794Z,20.10
2018-09-23T17:36:12.928Z,20.18
2018-09-23T17:46:16.252Z,20.60
2018-09-23T17:56:19.312Z,19.93
2018-09-23T18:06:22.679Z,19.61
2018-09-23T18:16:25.957Z,19.29
2018-09-23T18:26:29.126Z,19.23
2018-09-23T18:36:32.789Z,19.00
2018-09-23T18:46:35.861Z,18.81
2018-09-23T18:56:39.238Z,19.02
2018-09-23T19:06:42.484Z,18.72
2018-09-23T19:16:45.640Z,18.40
2018-09-23T19:26:48.957Z,18.35
2018-09-23T19:36:52.181Z,18.65
2018-09-23T19:46:56.322Z,20.62
2018-09-23T19:57:00.911Z,21.33
2018-09-23T20:07:04.054Z,21.56
2018-09-23T20:17:07.788Z,21.91
2018-09-23T20:27:10.885Z,22.52
2018-09-23T20:37:14.077Z,22.48
2018-09-23T20:47:17.217Z,22.63
2018-09-23T20:57:20.353Z,22.71
2018-09-23T21:07:23.522Z,22.22
2018-09-23T21:17:26.630Z,22.18
2018-09-23T21:27:29.790Z,22.18
2018-09-23T21:37:33.197Z,22.15
2018-09-23T21:47:36.390Z,22.15
2018-09-23T21:57:39.733Z,22.17
2018-09-23T22:07:44.392Z,22.15
2018-09-23T22:17:47.921Z,22.14
2018-09-23T22:27:52.428Z,22.15
2018-09-23T22:37:55.417Z,22.14
2018-09-23T22:47:58.558Z,22.15
2018-09-23T22:58:02.508Z,22.13
2018-09-23T23:08:06.138Z,22.11
2018-09-23T23:18:09.506Z,22.11
2018-09-23T23:28:12.586Z,22.11
2018-09-23T23:38:17.098Z,22.09
2018-09-23T23:48:20.313Z,22.08
2018-09-23T23:58:24.096Z,22.09
